sensor_id;sensor_type;location;lat;lon;timestamp;P1;durP1;ratioP1;P2;durP2;ratioP2
81170;SDS011;70644;44.818;20.478;2023-09-19T00:01:07;8.25;;;7.45;;
81170;SDS011;70644;44.818;20.478;2023-09-19T00:03:34;7.72;;;6.93;;
81170;SDS011;70644;44.818;20.478;2023-09-19T00:06:04;7.22;;;6.53;;
81170;SDS011;70644;44.818;20.478;2023-09-19T00:08:32;7.70;;;6.93;;
81170;SDS011;70644;44.818;20.478;2023-09-19T00:10:58;7.78;;;7.07;;
81170;SDS011;70644;44.818;20.478;2023-09-19T00:13:29;7.43;;;6.72;;
81170;SDS011;70644;44.818;20.478;2023-09-19T00:15:56;7.60;;;6.90;;
81170;SDS011;70644;44.818;20.478;2023-09-19T00:18:24;7.43;;;6.63;;
81170;SDS011;70644;44.818;20.478;2023-09-19T00:20:58;7.18;;;5.78;;
81170;SDS011;70644;44.818;20.478;2023-09-19T00:23:25;7.95;;;6.35;;
81170;SDS011;70644;44.818;20.478;2023-09-19T00:25:51;6.82;;;6.22;;
81170;SDS011;70644;44.818;20.478;2023-09-19T00:28:17;7.22;;;6.40;;
81170;SDS011;70644;44.818;20.478;2023-09-19T00:30:45;7.47;;;6.78;;
81170;SDS011;70644;44.818;20.478;2023-09-19T00:33:20;7.28;;;6.57;;
81170;SDS011;70644;44.818;20.478;2023-09-19T00:35:56;7.30;;;6.53;;
81170;SDS011;70644;44.818;20.478;2023-09-19T00:38:23;7.22;;;6.53;;
81170;SDS011;70644;44.818;20.478;2023-09-19T00:40:52;7.20;;;6.50;;
81170;SDS011;70644;44.818;20.478;2023-09-19T00:43:21;6.88;;;6.20;;
81170;SDS011;70644;44.818;20.478;2023-09-19T00:45:52;6.65;;;6.05;;
81170;SDS011;70644;44.818;20.478;2023-09-19T00:48:19;6.25;;;5.65;;
81170;SDS011;70644;44.818;20.478;2023-09-19T00:50:45;6.60;;;6.00;;
81170;SDS011;70644;44.818;20.478;2023-09-19T00:53:13;6.10;;;5.50;;
81170;SDS011;70644;44.818;20.478;2023-09-19T00:55:40;5.72;;;5.13;;
81170;SDS011;70644;44.818;20.478;2023-09-19T00:58:07;6.57;;;5.97;;
81170;SDS011;70644;44.818;20.478;2023-09-19T01:00:35;7.10;;;6.20;;
81170;SDS011;70644;44.818;20.478;2023-09-19T01:03:01;6.88;;;6.18;;
81170;SDS011;70644;44.818;20.478;2023-09-19T01:05:28;6.43;;;5.82;;
81170;SDS011;70644;44.818;20.478;2023-09-19T01:07:55;6.32;;;5.72;;
81170;SDS011;70644;44.818;20.478;2023-09-19T01:10:21;6.05;;;5.45;;
81170;SDS011;70644;44.818;20.478;2023-09-19T01:13:08;6.78;;;5.63;;
81170;SDS011;70644;44.818;20.478;2023-09-19T01:15:41;6.45;;;5.75;;
81170;SDS011;70644;44.818;20.478;2023-09-19T01:21:21;5.90;;;5.30;;
81170;SDS011;70644;44.818;20.478;2023-09-19T01:29:06;5.93;;;5.43;;
81170;SDS011;70644;44.818;20.478;2023-09-19T01:31:38;5.00;;;4.45;;
81170;SDS011;70644;44.818;20.478;2023-09-19T01:34:05;5.65;;;4.75;;
81170;SDS011;70644;44.818;20.478;2023-09-19T01:36:34;6.07;;;5.47;;
81170;SDS011;70644;44.818;20.478;2023-09-19T01:44:04;5.40;;;4.90;;
81170;SDS011;70644;44.818;20.478;2023-09-19T01:46:35;5.75;;;5.25;;
81170;SDS011;70644;44.818;20.478;2023-09-19T01:51:37;5.35;;;4.85;;
81170;SDS011;70644;44.818;20.478;2023-09-19T01:54:09;5.43;;;4.93;;
81170;SDS011;70644;44.818;20.478;2023-09-19T01:56:44;5.25;;;4.75;;
81170;SDS011;70644;44.818;20.478;2023-09-19T01:59:16;5.47;;;4.97;;
81170;SDS011;70644;44.818;20.478;2023-09-19T02:01:42;5.00;;;4.50;;
81170;SDS011;70644;44.818;20.478;2023-09-19T02:04:10;5.22;;;4.20;;
81170;SDS011;70644;44.818;20.478;2023-09-19T02:06:39;5.43;;;4.65;;
81170;SDS011;70644;44.818;20.478;2023-09-19T02:09:06;4.95;;;4.22;;
81170;SDS011;70644;44.818;20.478;2023-09-19T02:11:32;5.13;;;4.63;;
81170;SDS011;70644;44.818;20.478;2023-09-19T02:13:58;5.05;;;4.07;;
81170;SDS011;70644;44.818;20.478;2023-09-19T02:16:24;5.13;;;4.57;;
81170;SDS011;70644;44.818;20.478;2023-09-19T02:18:50;5.65;;;5.05;;
81170;SDS011;70644;44.818;20.478;2023-09-19T02:21:17;5.28;;;4.78;;
81170;SDS011;70644;44.818;20.478;2023-09-19T02:23:44;4.95;;;4.45;;
81170;SDS011;70644;44.818;20.478;2023-09-19T02:26:14;5.40;;;4.43;;
81170;SDS011;70644;44.818;20.478;2023-09-19T02:28:41;6.22;;;4.85;;
81170;SDS011;70644;44.818;20.478;2023-09-19T02:31:07;4.80;;;4.32;;
81170;SDS011;70644;44.818;20.478;2023-09-19T02:33:34;4.60;;;4.10;;
81170;SDS011;70644;44.818;20.478;2023-09-19T02:36:00;5.30;;;3.95;;
81170;SDS011;70644;44.818;20.478;2023-09-19T02:38:29;5.10;;;4.60;;
81170;SDS011;70644;44.818;20.478;2023-09-19T02:40:55;5.00;;;4.50;;
81170;SDS011;70644;44.818;20.478;2023-09-19T02:43:21;5.35;;;4.85;;
81170;SDS011;70644;44.818;20.478;2023-09-19T02:45:48;4.22;;;3.83;;
81170;SDS011;70644;44.818;20.478;2023-09-19T02:48:22;5.22;;;4.72;;
81170;SDS011;70644;44.818;20.478;2023-09-19T02:50:51;4.88;;;4.38;;
81170;SDS011;70644;44.818;20.478;2023-09-19T02:53:17;5.07;;;4.57;;
81170;SDS011;70644;44.818;20.478;2023-09-19T02:55:44;5.00;;;4.50;;
81170;SDS011;70644;44.818;20.478;2023-09-19T02:58:11;4.85;;;4.30;;
81170;SDS011;70644;44.818;20.478;2023-09-19T03:00:38;5.35;;;4.82;;
81170;SDS011;70644;44.818;20.478;2023-09-19T03:03:07;4.75;;;4.25;;
81170;SDS011;70644;44.818;20.478;2023-09-19T03:05:33;5.38;;;4.88;;
81170;SDS011;70644;44.818;20.478;2023-09-19T03:08:00;5.15;;;4.53;;
81170;SDS011;70644;44.818;20.478;2023-09-19T03:10:26;5.20;;;4.70;;
81170;SDS011;70644;44.818;20.478;2023-09-19T03:12:53;4.93;;;4.43;;
81170;SDS011;70644;44.818;20.478;2023-09-19T03:15:19;4.95;;;4.55;;
81170;SDS011;70644;44.818;20.478;2023-09-19T03:17:47;5.28;;;4.78;;
81170;SDS011;70644;44.818;20.478;2023-09-19T03:20:13;4.80;;;4.30;;
81170;SDS011;70644;44.818;20.478;2023-09-19T03:22:42;4.40;;;3.90;;
81170;SDS011;70644;44.818;20.478;2023-09-19T03:25:09;4.90;;;4.40;;
81170;SDS011;70644;44.818;20.478;2023-09-19T03:27:39;5.03;;;4.60;;
81170;SDS011;70644;44.818;20.478;2023-09-19T03:30:06;4.60;;;4.10;;
81170;SDS011;70644;44.818;20.478;2023-09-19T03:32:36;4.85;;;4.35;;
81170;SDS011;70644;44.818;20.478;2023-09-19T03:35:03;4.65;;;3.60;;
81170;SDS011;70644;44.818;20.478;2023-09-19T03:37:33;4.95;;;4.47;;
81170;SDS011;70644;44.818;20.478;2023-09-19T03:39:59;6.32;;;4.60;;
81170;SDS011;70644;44.818;20.478;2023-09-19T03:42:29;4.70;;;4.20;;
81170;SDS011;70644;44.818;20.478;2023-09-19T03:44:55;4.88;;;4.28;;
81170;SDS011;70644;44.818;20.478;2023-09-19T03:47:22;5.35;;;4.10;;
81170;SDS011;70644;44.818;20.478;2023-09-19T03:49:48;5.13;;;3.47;;
81170;SDS011;70644;44.818;20.478;2023-09-19T03:52:14;5.63;;;4.47;;
81170;SDS011;70644;44.818;20.478;2023-09-19T03:54:41;4.40;;;4.00;;
81170;SDS011;70644;44.818;20.478;2023-09-19T03:57:08;4.53;;;4.13;;
81170;SDS011;70644;44.818;20.478;2023-09-19T03:59:34;5.03;;;3.80;;
81170;SDS011;70644;44.818;20.478;2023-09-19T04:02:01;4.70;;;4.20;;
81170;SDS011;70644;44.818;20.478;2023-09-19T04:04:27;5.13;;;4.60;;
81170;SDS011;70644;44.818;20.478;2023-09-19T04:06:54;4.75;;;4.22;;
81170;SDS011;70644;44.818;20.478;2023-09-19T04:09:20;4.40;;;3.95;;
81170;SDS011;70644;44.818;20.478;2023-09-19T04:11:47;4.88;;;4.38;;
81170;SDS011;70644;44.818;20.478;2023-09-19T04:14:15;4.95;;;4.45;;
81170;SDS011;70644;44.818;20.478;2023-09-19T04:16:41;4.50;;;4.10;;
81170;SDS011;70644;44.818;20.478;2023-09-19T04:19:08;5.47;;;3.88;;
81170;SDS011;70644;44.818;20.478;2023-09-19T04:21:34;5.10;;;4.25;;
81170;SDS011;70644;44.818;20.478;2023-09-19T04:24:00;4.30;;;3.90;;
81170;SDS011;70644;44.818;20.478;2023-09-19T04:26:26;4.28;;;3.58;;
81170;SDS011;70644;44.818;20.478;2023-09-19T04:28:52;4.45;;;3.90;;
81170;SDS011;70644;44.818;20.478;2023-09-19T04:31:18;4.60;;;4.20;;
81170;SDS011;70644;44.818;20.478;2023-09-19T04:33:45;4.97;;;4.40;;
81170;SDS011;70644;44.818;20.478;2023-09-19T04:36:11;5.00;;;4.38;;
81170;SDS011;70644;44.818;20.478;2023-09-19T04:38:38;4.65;;;4.00;;
81170;SDS011;70644;44.818;20.478;2023-09-19T04:41:05;4.93;;;4.43;;
81170;SDS011;70644;44.818;20.478;2023-09-19T04:43:31;5.30;;;4.70;;
81170;SDS011;70644;44.818;20.478;2023-09-19T04:45:57;4.38;;;3.78;;
81170;SDS011;70644;44.818;20.478;2023-09-19T04:48:25;4.78;;;4.35;;
81170;SDS011;70644;44.818;20.478;2023-09-19T04:50:51;4.82;;;4.30;;
81170;SDS011;70644;44.818;20.478;2023-09-19T04:53:18;4.60;;;4.10;;
81170;SDS011;70644;44.818;20.478;2023-09-19T04:55:49;4.70;;;4.30;;
81170;SDS011;70644;44.818;20.478;2023-09-19T04:58:15;5.50;;;3.80;;
81170;SDS011;70644;44.818;20.478;2023-09-19T05:00:42;4.95;;;4.40;;
81170;SDS011;70644;44.818;20.478;2023-09-19T05:03:09;4.60;;;4.10;;
81170;SDS011;70644;44.818;20.478;2023-09-19T05:05:35;4.63;;;4.20;;
81170;SDS011;70644;44.818;20.478;2023-09-19T05:08:01;4.60;;;4.10;;
81170;SDS011;70644;44.818;20.478;2023-09-19T05:10:30;4.50;;;4.10;;
81170;SDS011;70644;44.818;20.478;2023-09-19T05:12:56;4.60;;;4.18;;
81170;SDS011;70644;44.818;20.478;2023-09-19T05:15:22;4.80;;;4.22;;
81170;SDS011;70644;44.818;20.478;2023-09-19T05:17:49;4.70;;;4.20;;
81170;SDS011;70644;44.818;20.478;2023-09-19T05:20:16;4.60;;;4.10;;
81170;SDS011;70644;44.818;20.478;2023-09-19T05:22:51;4.93;;;4.43;;
81170;SDS011;70644;44.818;20.478;2023-09-19T05:25:23;5.07;;;4.28;;
81170;SDS011;70644;44.818;20.478;2023-09-19T05:27:52;5.07;;;4.25;;
81170;SDS011;70644;44.818;20.478;2023-09-19T05:30:18;5.47;;;4.60;;
81170;SDS011;70644;44.818;20.478;2023-09-19T05:32:45;5.82;;;3.90;;
81170;SDS011;70644;44.818;20.478;2023-09-19T05:35:11;5.43;;;4.10;;
81170;SDS011;70644;44.818;20.478;2023-09-19T05:37:38;4.32;;;3.92;;
81170;SDS011;70644;44.818;20.478;2023-09-19T05:40:04;4.97;;;4.32;;
81170;SDS011;70644;44.818;20.478;2023-09-19T05:42:34;4.70;;;4.00;;
81170;SDS011;70644;44.818;20.478;2023-09-19T05:45:00;4.97;;;4.47;;
81170;SDS011;70644;44.818;20.478;2023-09-19T05:47:26;4.50;;;4.10;;
81170;SDS011;70644;44.818;20.478;2023-09-19T05:49:52;4.82;;;4.32;;
81170;SDS011;70644;44.818;20.478;2023-09-19T05:52:20;4.70;;;3.75;;
81170;SDS011;70644;44.818;20.478;2023-09-19T05:54:47;4.90;;;3.70;;
81170;SDS011;70644;44.818;20.478;2023-09-19T05:57:16;4.70;;;4.30;;
81170;SDS011;70644;44.818;20.478;2023-09-19T05:59:42;5.22;;;4.32;;
81170;SDS011;70644;44.818;20.478;2023-09-19T06:02:08;4.68;;;4.28;;
81170;SDS011;70644;44.818;20.478;2023-09-19T06:04:36;5.38;;;4.47;;
81170;SDS011;70644;44.818;20.478;2023-09-19T06:07:05;4.78;;;4.13;;
81170;SDS011;70644;44.818;20.478;2023-09-19T06:09:31;4.60;;;3.92;;
81170;SDS011;70644;44.818;20.478;2023-09-19T06:11:58;4.82;;;4.32;;
81170;SDS011;70644;44.818;20.478;2023-09-19T06:14:29;4.95;;;4.45;;
81170;SDS011;70644;44.818;20.478;2023-09-19T06:16:56;5.93;;;4.25;;
81170;SDS011;70644;44.818;20.478;2023-09-19T06:19:22;4.90;;;4.40;;
81170;SDS011;70644;44.818;20.478;2023-09-19T06:21:50;3.97;;;3.47;;
81170;SDS011;70644;44.818;20.478;2023-09-19T06:24:19;5.00;;;4.50;;
81170;SDS011;70644;44.818;20.478;2023-09-19T06:26:46;4.70;;;4.20;;
81170;SDS011;70644;44.818;20.478;2023-09-19T06:29:12;4.57;;;3.75;;
81170;SDS011;70644;44.818;20.478;2023-09-19T06:31:39;4.57;;;3.92;;
81170;SDS011;70644;44.818;20.478;2023-09-19T06:34:05;4.38;;;3.97;;
81170;SDS011;70644;44.818;20.478;2023-09-19T06:36:32;6.80;;;4.40;;
81170;SDS011;70644;44.818;20.478;2023-09-19T06:38:58;5.30;;;4.55;;
81170;SDS011;70644;44.818;20.478;2023-09-19T06:41:24;6.65;;;5.03;;
81170;SDS011;70644;44.818;20.478;2023-09-19T06:43:50;9.45;;;6.60;;
81170;SDS011;70644;44.818;20.478;2023-09-19T06:46:18;7.22;;;6.07;;
81170;SDS011;70644;44.818;20.478;2023-09-19T06:48:44;10.93;;;7.45;;
81170;SDS011;70644;44.818;20.478;2023-09-19T06:51:12;8.13;;;7.10;;
81170;SDS011;70644;44.818;20.478;2023-09-19T06:53:40;9.57;;;7.43;;
81170;SDS011;70644;44.818;20.478;2023-09-19T06:56:06;8.25;;;7.35;;
81170;SDS011;70644;44.818;20.478;2023-09-19T06:58:32;8.48;;;7.15;;
81170;SDS011;70644;44.818;20.478;2023-09-19T07:00:59;8.25;;;7.45;;
81170;SDS011;70644;44.818;20.478;2023-09-19T07:03:26;8.32;;;7.20;;
81170;SDS011;70644;44.818;20.478;2023-09-19T07:05:53;13.30;;;7.80;;
81170;SDS011;70644;44.818;20.478;2023-09-19T07:08:21;11.93;;;8.10;;
81170;SDS011;70644;44.818;20.478;2023-09-19T07:10:47;11.98;;;8.15;;
81170;SDS011;70644;44.818;20.478;2023-09-19T07:13:13;11.20;;;7.97;;
81170;SDS011;70644;44.818;20.478;2023-09-19T07:15:42;9.50;;;8.02;;
81170;SDS011;70644;44.818;20.478;2023-09-19T07:18:12;11.88;;;9.10;;
81170;SDS011;70644;44.818;20.478;2023-09-19T07:20:39;10.27;;;9.10;;
81170;SDS011;70644;44.818;20.478;2023-09-19T07:23:11;22.42;;;16.05;;
81170;SDS011;70644;44.818;20.478;2023-09-19T07:25:40;17.15;;;11.85;;
81170;SDS011;70644;44.818;20.478;2023-09-19T07:28:06;20.17;;;13.27;;
81170;SDS011;70644;44.818;20.478;2023-09-19T07:30:35;17.10;;;12.82;;
81170;SDS011;70644;44.818;20.478;2023-09-19T07:33:02;13.02;;;10.98;;
81170;SDS011;70644;44.818;20.478;2023-09-19T07:35:29;16.77;;;10.15;;
81170;SDS011;70644;44.818;20.478;2023-09-19T07:37:55;14.40;;;10.15;;
81170;SDS011;70644;44.818;20.478;2023-09-19T07:40:21;11.82;;;9.60;;
81170;SDS011;70644;44.818;20.478;2023-09-19T07:42:48;16.60;;;10.35;;
81170;SDS011;70644;44.818;20.478;2023-09-19T07:45:15;11.85;;;9.38;;
81170;SDS011;70644;44.818;20.478;2023-09-19T07:47:45;12.77;;;9.57;;
81170;SDS011;70644;44.818;20.478;2023-09-19T07:50:12;12.73;;;10.13;;
81170;SDS011;70644;44.818;20.478;2023-09-19T07:52:39;12.98;;;10.93;;
81170;SDS011;70644;44.818;20.478;2023-09-19T07:55:06;15.02;;;10.23;;
81170;SDS011;70644;44.818;20.478;2023-09-19T07:57:34;13.77;;;10.13;;
81170;SDS011;70644;44.818;20.478;2023-09-19T08:00:01;12.27;;;9.18;;
81170;SDS011;70644;44.818;20.478;2023-09-19T08:02:29;12.70;;;9.65;;
81170;SDS011;70644;44.818;20.478;2023-09-19T08:04:55;11.50;;;9.27;;
81170;SDS011;70644;44.818;20.478;2023-09-19T08:07:22;10.05;;;8.43;;
81170;SDS011;70644;44.818;20.478;2023-09-19T08:09:50;14.25;;;9.80;;
81170;SDS011;70644;44.818;20.478;2023-09-19T08:12:16;11.63;;;9.60;;
81170;SDS011;70644;44.818;20.478;2023-09-19T08:14:42;12.48;;;8.63;;
81170;SDS011;70644;44.818;20.478;2023-09-19T08:17:08;11.93;;;9.02;;
81170;SDS011;70644;44.818;20.478;2023-09-19T08:19:34;11.25;;;9.27;;
81170;SDS011;70644;44.818;20.478;2023-09-19T08:22:01;10.88;;;8.73;;
81170;SDS011;70644;44.818;20.478;2023-09-19T08:24:28;11.48;;;9.80;;
81170;SDS011;70644;44.818;20.478;2023-09-19T08:26:54;11.07;;;9.07;;
81170;SDS011;70644;44.818;20.478;2023-09-19T08:29:21;10.63;;;9.35;;
81170;SDS011;70644;44.818;20.478;2023-09-19T08:31:52;10.35;;;9.25;;
81170;SDS011;70644;44.818;20.478;2023-09-19T08:34:19;12.85;;;9.35;;
81170;SDS011;70644;44.818;20.478;2023-09-19T08:36:46;11.80;;;8.32;;
81170;SDS011;70644;44.818;20.478;2023-09-19T08:39:13;10.27;;;8.82;;
81170;SDS011;70644;44.818;20.478;2023-09-19T08:41:39;11.77;;;9.65;;
81170;SDS011;70644;44.818;20.478;2023-09-19T08:44:05;14.18;;;10.68;;
81170;SDS011;70644;44.818;20.478;2023-09-19T08:46:31;10.32;;;9.23;;
81170;SDS011;70644;44.818;20.478;2023-09-19T08:49:04;11.45;;;8.23;;
81170;SDS011;70644;44.818;20.478;2023-09-19T08:51:43;9.95;;;8.63;;
81170;SDS011;70644;44.818;20.478;2023-09-19T08:54:25;11.90;;;9.32;;
81170;SDS011;70644;44.818;20.478;2023-09-19T08:56:53;10.98;;;7.93;;
81170;SDS011;70644;44.818;20.478;2023-09-19T08:59:23;9.48;;;8.48;;
81170;SDS011;70644;44.818;20.478;2023-09-19T09:01:50;11.82;;;8.75;;
81170;SDS011;70644;44.818;20.478;2023-09-19T09:06:45;11.82;;;9.20;;
81170;SDS011;70644;44.818;20.478;2023-09-19T09:09:18;11.50;;;9.10;;
81170;SDS011;70644;44.818;20.478;2023-09-19T09:11:44;11.82;;;9.18;;
81170;SDS011;70644;44.818;20.478;2023-09-19T09:14:11;11.82;;;8.63;;
81170;SDS011;70644;44.818;20.478;2023-09-19T09:16:37;15.85;;;10.02;;
81170;SDS011;70644;44.818;20.478;2023-09-19T09:19:04;14.07;;;9.77;;
81170;SDS011;70644;44.818;20.478;2023-09-19T09:21:30;11.05;;;9.60;;
81170;SDS011;70644;44.818;20.478;2023-09-19T09:24:25;11.60;;;8.80;;
81170;SDS011;70644;44.818;20.478;2023-09-19T09:26:50;12.55;;;10.15;;
81170;SDS011;70644;44.818;20.478;2023-09-19T09:29:20;11.45;;;10.25;;
81170;SDS011;70644;44.818;20.478;2023-09-19T09:32:16;13.68;;;10.98;;
81170;SDS011;70644;44.818;20.478;2023-09-19T09:34:43;14.00;;;10.43;;
81170;SDS011;70644;44.818;20.478;2023-09-19T09:37:17;15.05;;;11.95;;
81170;SDS011;70644;44.818;20.478;2023-09-19T09:42:29;13.93;;;11.82;;
81170;SDS011;70644;44.818;20.478;2023-09-19T09:45:19;15.10;;;12.68;;
81170;SDS011;70644;44.818;20.478;2023-09-19T09:48:03;16.40;;;13.07;;
81170;SDS011;70644;44.818;20.478;2023-09-19T09:50:39;16.30;;;12.75;;
81170;SDS011;70644;44.818;20.478;2023-09-19T09:53:27;16.23;;;12.85;;
81170;SDS011;70644;44.818;20.478;2023-09-19T09:56:03;15.70;;;12.85;;
81170;SDS011;70644;44.818;20.478;2023-09-19T09:58:34;14.75;;;11.65;;
81170;SDS011;70644;44.818;20.478;2023-09-19T10:01:01;16.67;;;13.20;;
81170;SDS011;70644;44.818;20.478;2023-09-19T10:03:34;18.65;;;14.68;;
81170;SDS011;70644;44.818;20.478;2023-09-19T10:06:04;19.40;;;14.00;;
81170;SDS011;70644;44.818;20.478;2023-09-19T10:08:34;23.15;;;19.83;;
81170;SDS011;70644;44.818;20.478;2023-09-19T10:11:05;24.08;;;19.67;;
81170;SDS011;70644;44.818;20.478;2023-09-19T10:13:40;21.60;;;17.60;;
81170;SDS011;70644;44.818;20.478;2023-09-19T10:16:07;20.23;;;16.30;;
81170;SDS011;70644;44.818;20.478;2023-09-19T10:18:36;18.65;;;13.68;;
81170;SDS011;70644;44.818;20.478;2023-09-19T10:21:04;17.10;;;13.68;;
81170;SDS011;70644;44.818;20.478;2023-09-19T10:23:32;17.08;;;13.23;;
81170;SDS011;70644;44.818;20.478;2023-09-19T10:25:59;18.88;;;13.80;;
81170;SDS011;70644;44.818;20.478;2023-09-19T10:28:27;23.52;;;18.30;;
81170;SDS011;70644;44.818;20.478;2023-09-19T10:33:22;21.80;;;14.70;;
81170;SDS011;70644;44.818;20.478;2023-09-19T10:35:51;18.15;;;14.05;;
81170;SDS011;70644;44.818;20.478;2023-09-19T10:38:19;20.73;;;13.40;;
81170;SDS011;70644;44.818;20.478;2023-09-19T10:43:17;15.00;;;12.63;;
81170;SDS011;70644;44.818;20.478;2023-09-19T10:45:44;17.00;;;12.57;;
81170;SDS011;70644;44.818;20.478;2023-09-19T10:48:11;17.90;;;12.02;;
81170;SDS011;70644;44.818;20.478;2023-09-19T10:50:46;16.80;;;12.55;;
81170;SDS011;70644;44.818;20.478;2023-09-19T10:53:13;17.38;;;12.95;;
81170;SDS011;70644;44.818;20.478;2023-09-19T10:55:40;17.88;;;12.45;;
81170;SDS011;70644;44.818;20.478;2023-09-19T10:58:08;20.00;;;13.75;;
81170;SDS011;70644;44.818;20.478;2023-09-19T11:00:53;16.83;;;12.45;;
81170;SDS011;70644;44.818;20.478;2023-09-19T11:03:20;19.75;;;12.70;;
81170;SDS011;70644;44.818;20.478;2023-09-19T11:06:02;19.17;;;12.60;;
81170;SDS011;70644;44.818;20.478;2023-09-19T11:11:39;13.95;;;10.88;;
81170;SDS011;70644;44.818;20.478;2023-09-19T11:22:21;14.63;;;10.25;;
81170;SDS011;70644;44.818;20.478;2023-09-19T11:24:47;14.77;;;10.25;;
81170;SDS011;70644;44.818;20.478;2023-09-19T11:27:16;14.45;;;9.70;;
81170;SDS011;70644;44.818;20.478;2023-09-19T11:29:43;13.50;;;10.25;;
81170;SDS011;70644;44.818;20.478;2023-09-19T11:32:10;17.42;;;10.57;;
81170;SDS011;70644;44.818;20.478;2023-09-19T11:40:07;15.38;;;12.70;;
81170;SDS011;70644;44.818;20.478;2023-09-19T11:42:42;15.25;;;12.68;;
81170;SDS011;70644;44.818;20.478;2023-09-19T11:47:54;16.85;;;11.80;;
81170;SDS011;70644;44.818;20.478;2023-09-19T11:50:22;15.18;;;12.20;;
81170;SDS011;70644;44.818;20.478;2023-09-19T11:52:50;15.98;;;13.30;;
81170;SDS011;70644;44.818;20.478;2023-09-19T11:55:16;16.98;;;13.20;;
81170;SDS011;70644;44.818;20.478;2023-09-19T11:57:46;20.77;;;13.45;;
81170;SDS011;70644;44.818;20.478;2023-09-19T12:00:18;19.67;;;13.27;;
81170;SDS011;70644;44.818;20.478;2023-09-19T12:02:46;17.52;;;12.73;;
81170;SDS011;70644;44.818;20.478;2023-09-19T12:05:13;18.45;;;12.70;;
81170;SDS011;70644;44.818;20.478;2023-09-19T12:07:43;16.35;;;12.27;;
81170;SDS011;70644;44.818;20.478;2023-09-19T12:10:13;17.80;;;12.13;;
81170;SDS011;70644;44.818;20.478;2023-09-19T12:12:46;17.65;;;11.88;;
81170;SDS011;70644;44.818;20.478;2023-09-19T12:15:14;18.08;;;11.68;;
81170;SDS011;70644;44.818;20.478;2023-09-19T12:17:41;19.88;;;13.05;;
81170;SDS011;70644;44.818;20.478;2023-09-19T12:20:08;15.82;;;12.13;;
81170;SDS011;70644;44.818;20.478;2023-09-19T12:22:45;16.50;;;12.32;;
81170;SDS011;70644;44.818;20.478;2023-09-19T12:25:14;17.83;;;12.95;;
81170;SDS011;70644;44.818;20.478;2023-09-19T12:27:43;18.77;;;14.93;;
81170;SDS011;70644;44.818;20.478;2023-09-19T12:30:12;18.52;;;14.95;;
81170;SDS011;70644;44.818;20.478;2023-09-19T12:32:43;19.85;;;14.68;;
81170;SDS011;70644;44.818;20.478;2023-09-19T12:35:09;18.35;;;14.60;;
81170;SDS011;70644;44.818;20.478;2023-09-19T12:37:38;22.63;;;13.80;;
81170;SDS011;70644;44.818;20.478;2023-09-19T12:40:12;19.08;;;13.13;;
81170;SDS011;70644;44.818;20.478;2023-09-19T12:42:43;15.85;;;13.30;;
81170;SDS011;70644;44.818;20.478;2023-09-19T12:45:09;16.40;;;13.55;;
81170;SDS011;70644;44.818;20.478;2023-09-19T12:47:38;15.77;;;13.02;;
81170;SDS011;70644;44.818;20.478;2023-09-19T12:52:46;18.77;;;13.15;;
81170;SDS011;70644;44.818;20.478;2023-09-19T12:55:21;17.55;;;12.23;;
81170;SDS011;70644;44.818;20.478;2023-09-19T12:57:58;16.20;;;12.20;;
81170;SDS011;70644;44.818;20.478;2023-09-19T13:03:09;17.88;;;12.20;;
81170;SDS011;70644;44.818;20.478;2023-09-19T13:11:01;14.73;;;11.57;;
81170;SDS011;70644;44.818;20.478;2023-09-19T13:13:27;18.27;;;12.35;;
81170;SDS011;70644;44.818;20.478;2023-09-19T13:15:54;15.80;;;12.98;;
81170;SDS011;70644;44.818;20.478;2023-09-19T13:18:23;14.18;;;12.77;;
81170;SDS011;70644;44.818;20.478;2023-09-19T13:21:06;16.05;;;12.13;;
81170;SDS011;70644;44.818;20.478;2023-09-19T13:23:37;15.40;;;12.68;;
81170;SDS011;70644;44.818;20.478;2023-09-19T13:26:03;16.67;;;13.68;;
81170;SDS011;70644;44.818;20.478;2023-09-19T13:28:31;16.38;;;13.55;;
81170;SDS011;70644;44.818;20.478;2023-09-19T13:30:57;18.38;;;11.13;;
81170;SDS011;70644;44.818;20.478;2023-09-19T13:33:23;15.60;;;10.80;;
81170;SDS011;70644;44.818;20.478;2023-09-19T13:35:51;21.65;;;13.57;;
81170;SDS011;70644;44.818;20.478;2023-09-19T13:38:18;21.30;;;15.40;;
81170;SDS011;70644;44.818;20.478;2023-09-19T13:40:47;20.70;;;13.10;;
81170;SDS011;70644;44.818;20.478;2023-09-19T13:43:13;16.98;;;14.80;;
81170;SDS011;70644;44.818;20.478;2023-09-19T13:45:40;18.33;;;12.35;;
81170;SDS011;70644;44.818;20.478;2023-09-19T13:48:09;21.38;;;14.65;;
81170;SDS011;70644;44.818;20.478;2023-09-19T13:50:38;20.85;;;13.98;;
81170;SDS011;70644;44.818;20.478;2023-09-19T13:53:07;20.10;;;15.65;;
81170;SDS011;70644;44.818;20.478;2023-09-19T13:55:34;19.35;;;12.98;;
81170;SDS011;70644;44.818;20.478;2023-09-19T13:58:00;23.42;;;14.35;;
81170;SDS011;70644;44.818;20.478;2023-09-19T14:00:27;19.75;;;13.57;;
81170;SDS011;70644;44.818;20.478;2023-09-19T14:02:53;18.63;;;12.77;;
81170;SDS011;70644;44.818;20.478;2023-09-19T14:05:19;20.08;;;13.27;;
81170;SDS011;70644;44.818;20.478;2023-09-19T14:07:45;21.38;;;13.27;;
81170;SDS011;70644;44.818;20.478;2023-09-19T14:10:12;20.92;;;12.15;;
81170;SDS011;70644;44.818;20.478;2023-09-19T14:12:39;19.73;;;12.57;;
81170;SDS011;70644;44.818;20.478;2023-09-19T14:15:06;17.50;;;13.60;;
81170;SDS011;70644;44.818;20.478;2023-09-19T14:17:33;20.88;;;14.73;;
81170;SDS011;70644;44.818;20.478;2023-09-19T14:19:59;20.30;;;12.93;;
81170;SDS011;70644;44.818;20.478;2023-09-19T14:22:25;17.15;;;13.30;;
81170;SDS011;70644;44.818;20.478;2023-09-19T14:24:51;17.10;;;11.98;;
81170;SDS011;70644;44.818;20.478;2023-09-19T14:27:18;18.30;;;12.50;;
81170;SDS011;70644;44.818;20.478;2023-09-19T14:29:44;17.98;;;12.48;;
81170;SDS011;70644;44.818;20.478;2023-09-19T14:32:10;17.65;;;12.40;;
81170;SDS011;70644;44.818;20.478;2023-09-19T14:34:36;19.60;;;11.40;;
81170;SDS011;70644;44.818;20.478;2023-09-19T14:37:07;17.25;;;11.20;;
81170;SDS011;70644;44.818;20.478;2023-09-19T14:39:33;18.83;;;11.23;;
81170;SDS011;70644;44.818;20.478;2023-09-19T14:41:59;17.35;;;10.88;;
81170;SDS011;70644;44.818;20.478;2023-09-19T14:44:25;13.60;;;10.57;;
81170;SDS011;70644;44.818;20.478;2023-09-19T14:46:53;17.75;;;12.40;;
81170;SDS011;70644;44.818;20.478;2023-09-19T14:49:20;15.43;;;10.32;;
81170;SDS011;70644;44.818;20.478;2023-09-19T14:51:46;22.38;;;11.70;;
81170;SDS011;70644;44.818;20.478;2023-09-19T14:54:15;19.42;;;11.02;;
81170;SDS011;70644;44.818;20.478;2023-09-19T14:56:44;17.08;;;10.88;;
81170;SDS011;70644;44.818;20.478;2023-09-19T14:59:10;17.83;;;11.02;;
81170;SDS011;70644;44.818;20.478;2023-09-19T15:01:36;20.00;;;11.88;;
81170;SDS011;70644;44.818;20.478;2023-09-19T15:04:04;16.40;;;9.80;;
81170;SDS011;70644;44.818;20.478;2023-09-19T15:06:30;19.35;;;10.07;;
81170;SDS011;70644;44.818;20.478;2023-09-19T15:08:56;19.70;;;11.63;;
81170;SDS011;70644;44.818;20.478;2023-09-19T15:11:24;15.45;;;10.55;;
81170;SDS011;70644;44.818;20.478;2023-09-19T15:13:50;13.30;;;10.10;;
81170;SDS011;70644;44.818;20.478;2023-09-19T15:16:17;17.75;;;9.48;;
81170;SDS011;70644;44.818;20.478;2023-09-19T15:18:44;16.50;;;8.77;;
81170;SDS011;70644;44.818;20.478;2023-09-19T15:21:13;15.45;;;9.85;;
81170;SDS011;70644;44.818;20.478;2023-09-19T15:23:40;14.90;;;9.05;;
81170;SDS011;70644;44.818;20.478;2023-09-19T15:26:12;14.57;;;7.88;;